Time;durP1;ratioP1;P1;durP2;ratioP2;P2;SDS_P1;SDS_P2;PMS_P1;PMS_P2;Temp;Humidity;BMP_temperature;BMP_pressure;BME280_temperature;BME280_humidity;BME280_pressure;Samples;Min_cycle;Max_cycle;Signal;HPM_P1;HPM_P2
2021/08/19 00:00:23;;;;;;;3.37;3.07;;;13.80;99.90;;;;;;5006056;28;20871;-58
2021/08/19 00:03:01;;;;;;;4.90;3.20;;;13.80;99.90;;;;;;5013672;28;20976;-61
2021/08/19 00:05:32;;;;;;;4.93;3.53;;;13.70;99.90;;;;;;5012368;28;20863;-57
2021/08/19 00:08:06;;;;;;;5.00;3.63;;;13.80;99.90;;;;;;5003254;28;20472;-57
2021/08/19 00:10:35;;;;;;;3.43;3.13;;;13.80;99.90;;;;;;4991514;28;20786;-59
2021/08/19 00:13:21;;;;;;;5.90;3.97;;;13.80;99.90;;;;;;5007663;28;20799;-59
2021/08/19 00:15:56;;;;;;;6.10;3.40;;;13.90;99.90;;;;;;5002133;28;20487;-59
2021/08/19 00:18:23;;;;;;;4.10;3.10;;;13.90;99.90;;;;;;4992096;28;20431;-59
2021/08/19 00:20:54;;;;;;;5.20;3.60;;;13.80;99.90;;;;;;4996826;28;20436;-59
2021/08/19 00:23:28;;;;;;;3.50;2.87;;;13.90;99.90;;;;;;5012178;28;20435;-60
2021/08/19 00:25:57;;;;;;;4.40;2.63;;;13.90;99.90;;;;;;5009998;28;20424;-60
2021/08/19 00:28:28;;;;;;;4.50;3.23;;;13.80;99.90;;;;;;5012488;28;20455;-59
2021/08/19 00:30:56;;;;;;;5.20;3.50;;;13.80;99.90;;;;;;5008790;28;20431;-60
2021/08/19 00:33:39;;;;;;;3.50;2.93;;;13.70;99.90;;;;;;4992934;28;20476;-60
2021/08/19 00:36:11;;;;;;;7.03;3.10;;;13.70;99.90;;;;;;5000614;28;20428;-59
2021/08/19 00:38:36;;;;;;;4.07;3.30;;;13.70;99.90;;;;;;5007997;28;20435;-60
2021/08/19 00:41:17;;;;;;;5.03;3.30;;;13.70;99.90;;;;;;5010415;28;20496;-60
2021/08/19 00:43:51;;;;;;;5.70;3.23;;;13.70;99.90;;;;;;5011811;28;20184;-60
2021/08/19 00:46:48;;;;;;;4.70;3.40;;;13.70;99.90;;;;;;4996452;28;20505;-59
2021/08/19 00:49:22;;;;;;;5.57;2.90;;;13.70;99.90;;;;;;5021034;28;20474;-59
2021/08/19 00:52:15;;;;;;;4.60;3.63;;;13.70;99.90;;;;;;5004303;28;20527;-58
2021/08/19 00:54:45;;;;;;;4.90;2.97;;;13.80;99.90;;;;;;4995029;28;20422;-58
2021/08/19 00:57:26;;;;;;;4.33;3.20;;;13.80;99.90;;;;;;5011741;28;20407;-58
2021/08/19 00:59:58;;;;;;;7.63;3.17;;;13.80;99.90;;;;;;5009966;28;20952;-58
2021/08/19 01:02:34;;;;;;;5.40;3.30;;;13.80;99.90;;;;;;5008927;28;20415;-58
2021/08/19 01:05:12;;;;;;;4.47;3.40;;;13.80;99.90;;;;;;5013733;28;20899;-57
2021/08/19 01:07:40;;;;;;;4.93;3.30;;;13.80;99.90;;;;;;5011772;28;20486;-60
2021/08/19 01:10:09;;;;;;;4.10;3.50;;;13.80;99.90;;;;;;5007781;28;20494;-59
2021/08/19 01:12:49;;;;;;;3.43;2.93;;;13.80;99.90;;;;;;5006877;28;20519;-59
2021/08/19 01:15:15;;;;;;;3.60;3.30;;;13.70;99.90;;;;;;5011734;28;20795;-58
2021/08/19 01:17:40;;;;;;;4.70;3.13;;;13.70;99.90;;;;;;5011565;28;20961;-59
2021/08/19 01:20:07;;;;;;;4.83;3.43;;;13.70;99.90;;;;;;4993872;28;20726;-59
2021/08/19 01:22:37;;;;;;;3.53;3.20;;;13.70;99.90;;;;;;4991473;28;20173;-58
2021/08/19 01:25:06;;;;;;;8.37;3.40;;;13.70;99.90;;;;;;5007042;28;20435;-58
2021/08/19 01:27:58;;;;;;;4.60;3.33;;;13.70;99.90;;;;;;5011117;28;20434;-58
2021/08/19 01:30:25;;;;;;;8.43;3.37;;;13.70;99.90;;;;;;5007743;28;20473;-58
2021/08/19 01:33:08;;;;;;;5.07;3.30;;;13.70;99.90;;;;;;4992133;28;20944;-59
2021/08/19 01:35:37;;;;;;;4.97;3.20;;;13.70;99.90;;;;;;5000230;28;20411;-58
2021/08/19 01:38:34;;;;;;;4.10;3.00;;;13.80;99.90;;;;;;5028894;28;21129;-58
2021/08/19 01:41:12;;;;;;;7.57;3.33;;;13.70;99.90;;;;;;5018508;28;20454;-59
2021/08/19 01:43:47;;;;;;;3.80;3.20;;;13.80;99.90;;;;;;4991308;28;20495;-58
2021/08/19 01:46:57;;;;;;;5.83;3.53;;;13.80;99.90;;;;;;5000756;28;20414;-58
2021/08/19 01:49:20;;;;;;;4.70;3.63;;;13.80;99.90;;;;;;5007584;28;20491;-58
2021/08/19 01:52:02;;;;;;;5.57;3.50;;;13.70;99.90;;;;;;5003824;28;20596;-57
2021/08/19 01:54:28;;;;;;;4.73;3.80;;;13.80;99.90;;;;;;5010438;28;20212;-58
2021/08/19 01:56:55;;;;;;;5.03;3.40;;;13.80;99.90;;;;;;5009916;28;20512;-58
2021/08/19 01:59:38;;;;;;;4.10;3.33;;;13.80;99.90;;;;;;5009079;28;20200;-58
2021/08/19 02:02:04;;;;;;;3.80;3.20;;;13.80;99.90;;;;;;4989561;28;20519;-59
2021/08/19 02:04:38;;;;;;;5.43;3.30;;;13.80;99.90;;;;;;5007067;28;20565;-60
2021/08/19 02:07:24;;;;;;;5.30;3.17;;;13.80;99.90;;;;;;5009216;28;20171;-60
2021/08/19 02:09:56;;;;;;;6.07;3.33;;;13.80;99.90;;;;;;4989361;28;20980;-59
2021/08/19 02:12:24;;;;;;;5.67;3.00;;;13.80;99.90;;;;;;4998441;28;20420;-59
2021/08/19 02:14:50;;;;;;;4.20;3.30;;;13.80;99.90;;;;;;5010077;28;20422;-59
2021/08/19 02:17:18;;;;;;;5.57;3.70;;;13.80;99.90;;;;;;4996559;28;20804;-59
2021/08/19 02:19:46;;;;;;;8.10;3.37;;;13.70;99.90;;;;;;4992040;28;20223;-59
2021/08/19 02:22:14;;;;;;;7.10;3.80;;;13.70;99.90;;;;;;5010190;28;20439;-58
2021/08/19 02:24:40;;;;;;;4.73;3.30;;;13.70;99.90;;;;;;5005522;28;20435;-59
2021/08/19 02:27:06;;;;;;;4.90;3.87;;;13.70;99.90;;;;;;5010124;28;20465;-59
2021/08/19 02:29:37;;;;;;;5.93;4.00;;;13.70;99.90;;;;;;5009595;28;20204;-58
2021/08/19 02:32:06;;;;;;;4.27;3.73;;;13.70;99.90;;;;;;4998259;28;20519;-59
2021/08/19 02:34:32;;;;;;;7.90;4.40;;;13.70;99.90;;;;;;4989825;28;20409;-59
2021/08/19 02:36:57;;;;;;;6.00;3.70;;;13.80;99.90;;;;;;4997193;28;20422;-58
2021/08/19 02:39:26;;;;;;;6.50;4.67;;;13.80;99.90;;;;;;5002567;28;20236;-58
2021/08/19 02:42:00;;;;;;;9.33;4.20;;;13.80;99.90;;;;;;4990534;28;20173;-59
2021/08/19 02:44:27;;;;;;;6.33;4.60;;;13.80;99.90;;;;;;5004419;28;20441;-58
2021/08/19 02:46:57;;;;;;;4.80;3.63;;;13.80;99.90;;;;;;5026056;28;20493;-58
2021/08/19 02:49:31;;;;;;;5.10;3.70;;;13.90;99.90;;;;;;4990097;28;20458;-58
2021/08/19 02:52:02;;;;;;;5.03;3.00;;;13.90;99.90;;;;;;4990370;28;20402;-58
2021/08/19 02:54:37;;;;;;;3.43;3.13;;;14.00;99.90;;;;;;4997711;28;20419;-58
2021/08/19 02:57:06;;;;;;;5.83;3.30;;;14.00;99.90;;;;;;4992700;28;20895;-58
2021/08/19 02:59:38;;;;;;;4.13;3.73;;;14.00;99.90;;;;;;4990222;28;20433;-58
2021/08/19 03:02:07;;;;;;;6.03;2.57;;;14.00;99.90;;;;;;5003820;28;20975;-58
2021/08/19 03:04:40;;;;;;;3.70;2.80;;;14.00;99.90;;;;;;5000491;28;20439;-59
2021/08/19 03:07:11;;;;;;;4.43;3.30;;;14.00;99.90;;;;;;5007543;28;20422;-58
2021/08/19 03:09:54;;;;;;;4.60;3.47;;;14.10;99.90;;;;;;5009444;28;20494;-59
2021/08/19 03:12:37;;;;;;;7.77;3.70;;;14.10;99.90;;;;;;5000528;28;20428;-58
2021/08/19 03:15:04;;;;;;;12.40;4.30;;;14.00;99.90;;;;;;5017588;28;20422;-59
2021/08/19 03:17:35;;;;;;;8.10;3.87;;;14.00;99.90;;;;;;5029927;28;20495;-58
2021/08/19 03:20:12;;;;;;;7.37;3.97;;;14.00;99.90;;;;;;5029168;28;20422;-58
2021/08/19 03:22:51;;;;;;;;;;;;;;;;;;;;;
2021/08/19 03:25:17;;;;;;;6.50;3.50;;;14.00;99.90;;;;;;4996611;28;20420;-58
2021/08/19 03:27:49;;;;;;;5.33;3.37;;;14.00;99.90;;;;;;5012998;28;20411;-58
2021/08/19 03:30:18;;;;;;;4.83;3.43;;;14.00;99.90;;;;;;5011116;28;20502;-58
2021/08/19 03:32:49;;;;;;;7.10;3.33;;;14.00;99.90;;;;;;4993030;28;20436;-59
2021/08/19 03:35:22;;;;;;;4.97;3.80;;;14.00;99.90;;;;;;4993654;28;20412;-58
2021/08/19 03:37:48;;;;;;;4.27;3.73;;;14.00;99.90;;;;;;5010714;28;20407;-60
2021/08/19 03:40:15;;;;;;;4.43;3.43;;;14.00;99.90;;;;;;5019088;28;20478;-60
2021/08/19 03:42:40;;;;;;;4.47;3.60;;;14.00;99.90;;;;;;4993575;28;20173;-58
2021/08/19 03:45:08;;;;;;;5.53;3.17;;;14.10;99.90;;;;;;4999391;28;20438;-58
2021/08/19 03:47:33;;;;;;;4.80;3.27;;;14.00;99.90;;;;;;5012727;28;20256;-58
2021/08/19 03:49:59;;;;;;;3.97;3.30;;;14.10;99.90;;;;;;5009559;28;20565;-58
2021/08/19 03:52:25;;;;;;;3.37;3.07;;;14.00;99.90;;;;;;5022086;28;20180;-58
2021/08/19 03:54:51;;;;;;;3.73;3.00;;;14.10;99.90;;;;;;4997265;28;20176;-58
2021/08/19 03:57:16;;;;;;;3.40;2.67;;;14.10;99.90;;;;;;4998053;28;20673;-58
2021/08/19 03:59:42;;;;;;;3.10;2.73;;;14.10;99.90;;;;;;5007980;28;20439;-58
2021/08/19 04:02:08;;;;;;;6.73;3.30;;;14.10;99.90;;;;;;5003078;28;20179;-59
2021/08/19 04:04:34;;;;;;;3.83;3.00;;;14.20;99.90;;;;;;5012522;28;20493;-58
2021/08/19 04:06:59;;;;;;;5.20;3.60;;;14.20;99.90;;;;;;4999661;28;20189;-59
2021/08/19 04:09:26;;;;;;;3.50;3.13;;;14.20;99.90;;;;;;4992523;28;20233;-59
2021/08/19 04:11:51;;;;;;;7.43;3.70;;;14.20;99.90;;;;;;4993063;28;20166;-60
2021/08/19 04:14:17;;;;;;;6.03;3.67;;;14.20;99.90;;;;;;5001808;28;20959;-59
2021/08/19 04:16:43;;;;;;;4.77;3.43;;;14.20;99.90;;;;;;5006501;28;20177;-59
2021/08/19 04:19:09;;;;;;;4.70;3.40;;;14.20;99.90;;;;;;5010900;28;20215;-59
2021/08/19 04:21:34;;;;;;;5.70;3.33;;;14.20;99.90;;;;;;5012511;28;20176;-58
2021/08/19 04:24:00;;;;;;;5.17;3.40;;;14.20;99.90;;;;;;5012986;28;20924;-58
2021/08/19 04:26:27;;;;;;;6.40;3.40;;;14.10;99.90;;;;;;5009051;28;20196;-59
2021/08/19 04:28:53;;;;;;;4.80;3.23;;;14.10;99.90;;;;;;5011918;28;20215;-59
2021/08/19 04:31:18;;;;;;;5.23;3.13;;;14.10;99.90;;;;;;5004571;28;20436;-60
2021/08/19 04:33:44;;;;;;;5.73;3.53;;;14.10;99.90;;;;;;5029346;28;20425;-59
2021/08/19 04:36:10;;;;;;;4.20;3.60;;;14.10;99.90;;;;;;5010871;28;20345;-58
2021/08/19 04:38:35;;;;;;;5.33;3.23;;;14.10;99.90;;;;;;5009433;28;20295;-58
2021/08/19 04:41:01;;;;;;;3.53;3.20;;;14.10;99.90;;;;;;4992396;28;20181;-58
2021/08/19 04:43:28;;;;;;;3.37;3.07;;;14.10;99.90;;;;;;4992120;28;20209;-59
2021/08/19 04:45:54;;;;;;;3.30;2.80;;;14.10;99.90;;;;;;4992904;28;20400;-59
2021/08/19 04:48:19;;;;;;;3.70;2.90;;;14.10;99.90;;;;;;4991977;28;20428;-59
2021/08/19 04:50:45;;;;;;;3.13;2.80;;;14.10;99.90;;;;;;5001356;28;20231;-60
2021/08/19 04:53:10;;;;;;;4.47;3.33;;;14.10;99.90;;;;;;5009889;28;20184;-59
2021/08/19 04:55:36;;;;;;;4.87;3.73;;;14.10;99.90;;;;;;5005692;28;20183;-59
2021/08/19 04:58:02;;;;;;;4.77;3.00;;;14.10;99.90;;;;;;4991884;28;20215;-59
2021/08/19 05:00:27;;;;;;;4.87;3.60;;;14.10;99.90;;;;;;5007400;28;20220;-60
2021/08/19 05:02:53;;;;;;;4.37;3.00;;;14.10;99.90;;;;;;5010575;28;20198;-59
2021/08/19 05:05:20;;;;;;;7.10;3.10;;;14.10;99.90;;;;;;5005424;28;20715;-59
2021/08/19 05:07:45;;;;;;;4.27;3.40;;;14.10;99.90;;;;;;5011416;28;20177;-58
2021/08/19 05:10:12;;;;;;;4.40;3.60;;;14.10;99.90;;;;;;5009738;28;20609;-59
2021/08/19 05:12:38;;;;;;;4.30;3.20;;;14.10;99.90;;;;;;5012353;28;20777;-58
2021/08/19 05:15:04;;;;;;;12.17;3.60;;;14.10;99.90;;;;;;5010981;28;20396;-59
2021/08/19 05:17:29;;;;;;;4.00;2.70;;;14.10;99.90;;;;;;5019086;28;20442;-59
2021/08/19 05:19:55;;;;;;;6.50;3.83;;;14.20;99.90;;;;;;5030466;28;20438;-61
2021/08/19 05:22:21;;;;;;;6.70;3.70;;;14.20;99.90;;;;;;5054395;28;20183;-63
2021/08/19 05:24:46;;;;;;;6.90;3.60;;;14.20;99.90;;;;;;5054474;28;20279;-62
2021/08/19 05:27:12;;;;;;;7.23;3.53;;;14.20;99.90;;;;;;5051246;28;20215;-62
2021/08/19 05:29:37;;;;;;;3.57;3.27;;;14.20;99.90;;;;;;5037194;28;20260;-58
2021/08/19 05:32:03;;;;;;;4.00;3.30;;;14.30;99.90;;;;;;5003672;28;20181;-59
2021/08/19 05:34:29;;;;;;;3.63;2.80;;;14.30;99.90;;;;;;5014591;28;20230;-61
2021/08/19 05:36:55;;;;;;;7.63;3.70;;;14.30;99.90;;;;;;5025162;28;20418;-59
2021/08/19 05:39:20;;;;;;;5.63;3.93;;;14.30;99.90;;;;;;4994175;28;20458;-59
2021/08/19 05:41:46;;;;;;;5.00;3.27;;;14.30;99.90;;;;;;5004258;28;20176;-58
2021/08/19 05:44:12;;;;;;;3.80;3.40;;;14.30;99.90;;;;;;5011183;28;20180;-59
2021/08/19 05:46:41;;;;;;;6.10;3.20;;;14.40;99.90;;;;;;5010153;28;20242;-60
2021/08/19 05:49:09;;;;;;;4.97;3.30;;;14.40;99.90;;;;;;4994573;28;20732;-60
2021/08/19 05:51:35;;;;;;;4.60;2.90;;;14.40;99.90;;;;;;5018511;28;20411;-59
2021/08/19 05:54:01;;;;;;;6.90;3.20;;;14.50;99.90;;;;;;5039755;22;20907;-56
2021/08/19 05:56:27;;;;;;;7.77;3.20;;;14.50;99.90;;;;;;5007895;28;20180;-57
2021/08/19 05:58:52;;;;;;;7.60;3.23;;;14.50;99.90;;;;;;5007586;28;20173;-57
2021/08/19 06:01:18;;;;;;;5.20;2.67;;;14.60;99.90;;;;;;5008130;28;20475;-57
2021/08/19 06:03:43;;;;;;;5.10;3.50;;;14.70;99.90;;;;;;5003484;28;20408;-57
2021/08/19 06:06:10;;;;;;;4.13;3.20;;;14.70;99.90;;;;;;5008656;28;20274;-57
2021/08/19 06:08:36;;;;;;;3.73;3.00;;;14.80;99.90;;;;;;5007106;28;20543;-57
2021/08/19 06:11:02;;;;;;;5.30;3.20;;;14.80;99.90;;;;;;5000301;28;20932;-57
2021/08/19 06:13:28;;;;;;;5.70;2.77;;;14.80;99.90;;;;;;4998046;28;20185;-57
2021/08/19 06:15:56;;;;;;;14.00;3.43;;;14.90;99.90;;;;;;5008371;28;20657;-57
2021/08/19 06:18:21;;;;;;;6.00;3.30;;;14.90;99.90;;;;;;5008777;28;20184;-57
2021/08/19 06:20:47;;;;;;;4.53;3.33;;;15.00;99.90;;;;;;4996885;28;20436;-57
2021/08/19 06:23:13;;;;;;;7.87;3.60;;;15.00;99.90;;;;;;4995728;28;20524;-57
2021/08/19 06:25:40;;;;;;;4.03;3.13;;;15.00;99.90;;;;;;5002120;28;20653;-57
2021/08/19 06:28:06;;;;;;;4.20;3.40;;;15.10;99.90;;;;;;4998852;28;20173;-57
2021/08/19 06:30:32;;;;;;;7.27;3.03;;;15.10;99.90;;;;;;4988582;28;20543;-57
2021/08/19 06:33:02;;;;;;;4.40;2.77;;;15.20;99.90;;;;;;4987481;28;20440;-57
2021/08/19 06:35:28;;;;;;;15.27;4.00;;;15.20;99.90;;;;;;4997168;28;20443;-57
2021/08/19 06:37:54;;;;;;;4.20;3.30;;;15.30;99.90;;;;;;5007460;28;20497;-56
2021/08/19 06:40:20;;;;;;;3.60;2.80;;;15.30;99.90;;;;;;5007926;28;20179;-57
2021/08/19 06:42:46;;;;;;;4.80;3.53;;;15.40;99.90;;;;;;5002472;28;20432;-57
2021/08/19 06:45:12;;;;;;;3.70;3.07;;;15.40;99.90;;;;;;5003583;28;20534;-57
2021/08/19 06:47:38;;;;;;;5.77;2.90;;;15.50;99.90;;;;;;4997196;28;20202;-57
2021/08/19 06:50:04;;;;;;;6.30;3.63;;;15.60;99.90;;;;;;5001927;28;20201;-57
2021/08/19 06:52:29;;;;;;;5.53;2.93;;;15.60;99.90;;;;;;4995857;28;20208;-57
2021/08/19 06:54:58;;;;;;;4.63;3.00;;;15.70;99.90;;;;;;5007854;28;20471;-57
2021/08/19 06:57:24;;;;;;;7.80;2.90;;;15.80;99.90;;;;;;5001265;28;20234;-57
2021/08/19 06:59:50;;;;;;;7.47;2.80;;;15.80;99.90;;;;;;5008242;28;20415;-57
2021/08/19 07:02:15;;;;;;;10.17;2.97;;;15.90;99.90;;;;;;5009379;28;20242;-57
2021/08/19 07:04:41;;;;;;;13.03;3.50;;;15.90;99.90;;;;;;5009884;28;20208;-58
2021/08/19 07:07:07;;;;;;;3.93;2.33;;;15.90;99.90;;;;;;5012064;28;20565;-57
2021/08/19 07:09:32;;;;;;;2.97;2.40;;;16.10;99.90;;;;;;5011732;28;20692;-57
2021/08/19 07:11:58;;;;;;;3.67;2.67;;;16.10;99.90;;;;;;5011619;28;20282;-57
2021/08/19 07:14:24;;;;;;;5.20;3.07;;;16.20;99.90;;;;;;5008727;28;20250;-57
2021/08/19 07:16:49;;;;;;;4.03;2.40;;;16.30;99.90;;;;;;5010474;28;20172;-57
2021/08/19 07:19:15;;;;;;;3.47;2.67;;;16.30;99.90;;;;;;5011119;28;20220;-57
2021/08/19 07:21:45;;;;;;;8.00;2.20;;;16.40;99.90;;;;;;5007162;28;20709;-57
2021/08/19 07:24:11;;;;;;;5.77;2.40;;;16.50;99.90;;;;;;4991919;28;20672;-57
2021/08/19 07:26:37;;;;;;;14.23;2.70;;;16.60;99.90;;;;;;5003300;28;20447;-58
2021/08/19 07:29:05;;;;;;;2.37;2.00;;;16.70;99.90;;;;;;5009766;28;20529;-57
2021/08/19 07:31:32;;;;;;;2.80;2.10;;;16.80;99.90;;;;;;4994910;28;20689;-57
2021/08/19 07:33:57;;;;;;;5.23;2.20;;;16.80;99.90;;;;;;4991002;28;20575;-57
2021/08/19 07:36:23;;;;;;;3.70;2.20;;;16.80;99.90;;;;;;5006648;28;20499;-57
2021/08/19 07:38:49;;;;;;;4.07;2.20;;;16.80;99.90;;;;;;5005179;28;20263;-57
2021/08/19 07:41:14;;;;;;;2.83;1.80;;;16.90;99.90;;;;;;5001314;28;20529;-57
2021/08/19 07:43:40;;;;;;;4.10;1.73;;;17.00;99.90;;;;;;5011016;28;20318;-57
2021/08/19 07:46:05;;;;;;;2.17;1.97;;;17.00;99.90;;;;;;5011403;28;20161;-57
2021/08/19 07:48:31;;;;;;;1.90;1.80;;;17.10;99.90;;;;;;5004538;28;20197;-57
2021/08/19 07:50:57;;;;;;;2.00;1.80;;;17.10;99.90;;;;;;4996380;28;20179;-57
2021/08/19 07:53:23;;;;;;;3.60;2.00;;;17.20;99.90;;;;;;5017261;28;20171;-57
2021/08/19 07:55:50;;;;;;;2.97;1.60;;;17.30;99.90;;;;;;5030552;28;20342;-56
2021/08/19 07:58:15;;;;;;;1.67;1.57;;;17.40;99.90;;;;;;5021529;28;20515;-57
2021/08/19 08:00:41;;;;;;;2.77;1.93;;;17.30;98.70;;;;;;5004753;28;20510;-57
2021/08/19 08:03:06;;;;;;;1.73;1.63;;;17.30;98.60;;;;;;5010503;28;20177;-57
2021/08/19 08:05:34;;;;;;;3.13;1.50;;;17.30;99.40;;;;;;5010623;28;20199;-56
2021/08/19 08:08:04;;;;;;;2.83;1.80;;;17.30;99.00;;;;;;4999622;28;20196;-57
2021/08/19 08:10:30;;;;;;;2.53;1.53;;;17.20;98.50;;;;;;4990506;28;20914;-57
2021/08/19 08:13:00;;;;;;;1.53;1.43;;;17.20;98.90;;;;;;5006163;28;20930;-57
2021/08/19 08:15:26;;;;;;;2.20;1.40;;;17.30;99.70;;;;;;5007507;28;20901;-57
2021/08/19 08:17:52;;;;;;;4.30;1.33;;;17.30;98.70;;;;;;5003341;28;20447;-56
2021/08/19 08:20:17;;;;;;;2.73;1.40;;;17.40;97.30;;;;;;5010677;28;20451;-56
2021/08/19 08:22:45;;;;;;;1.53;1.20;;;17.40;97.90;;;;;;5007075;28;20176;-57
2021/08/19 08:25:13;;;;;;;1.37;1.27;;;17.50;97.20;;;;;;5003274;28;20209;-57
2021/08/19 08:27:59;;;;;;;2.37;1.30;;;17.50;96.70;;;;;;5009869;28;20499;-57
2021/08/19 08:30:25;;;;;;;4.23;1.67;;;17.60;95.50;;;;;;5010870;28;20838;-57
2021/08/19 08:32:50;;;;;;;1.17;1.07;;;17.70;95.90;;;;;;5007964;28;20429;-57
2021/08/19 08:35:18;;;;;;;1.20;1.10;;;17.80;96.80;;;;;;5010160;28;20427;-57
2021/08/19 08:37:44;;;;;;;4.00;1.30;;;18.00;96.00;;;;;;5010230;28;20280;-57
2021/08/19 08:40:12;;;;;;;1.30;1.20;;;18.10;95.00;;;;;;5008568;28;20502;-58
2021/08/19 08:42:39;;;;;;;1.30;1.20;;;18.20;93.30;;;;;;5006200;28;20192;-55
2021/08/19 08:45:05;;;;;;;1.30;1.20;;;18.20;94.10;;;;;;5008433;28;20984;-57
2021/08/19 08:47:34;;;;;;;1.50;1.20;;;18.30;93.00;;;;;;5009556;28;20923;-57
2021/08/19 08:50:00;;;;;;;1.20;1.10;;;18.30;92.00;;;;;;5003957;28;20455;-57
2021/08/19 08:52:27;;;;;;;1.40;1.30;;;18.40;93.10;;;;;;5007162;28;20781;-55
2021/08/19 08:54:53;;;;;;;1.33;1.23;;;18.50;93.30;;;;;;5010405;28;20466;-55
2021/08/19 08:57:19;;;;;;;1.63;0.97;;;18.60;91.40;;;;;;5009686;28;20518;-55
2021/08/19 08:59:44;;;;;;;2.17;1.30;;;18.70;88.30;;;;;;5003480;28;20515;-55
2021/08/19 09:02:10;;;;;;;1.80;1.50;;;18.70;88.30;;;;;;4997820;28;20200;-57
2021/08/19 09:04:36;;;;;;;1.60;1.50;;;18.70;85.40;;;;;;5008384;28;20302;-55
2021/08/19 09:07:05;;;;;;;1.53;1.10;;;18.70;84.00;;;;;;5008793;28;20234;-56
2021/08/19 09:09:31;;;;;;;1.33;1.23;;;18.70;79.30;;;;;;5008902;28;20200;-56
2021/08/19 09:12:03;;;;;;;1.77;1.10;;;18.70;81.60;;;;;;4994769;28;20427;-57
2021/08/19 09:14:32;;;;;;;1.10;1.00;;;18.80;81.20;;;;;;4989791;28;20431;-57
2021/08/19 09:16:58;;;;;;;1.90;1.20;;;18.80;77.10;;;;;;5008392;28;20450;-54
2021/08/19 09:19:29;;;;;;;1.23;1.00;;;18.80;79.60;;;;;;5009934;28;20453;-57
2021/08/19 09:21:58;;;;;;;1.33;1.23;;;19.00;80.00;;;;;;5007189;28;20467;-56
2021/08/19 09:24:34;;;;;;;1.50;1.40;;;19.00;73.00;;;;;;5009433;28;20787;-56
2021/08/19 09:27:13;;;;;;;1.23;1.10;;;19.00;74.10;;;;;;4989191;28;20717;-57
2021/08/19 09:29:40;;;;;;;1.27;1.17;;;19.10;77.00;;;;;;4989170;28;20879;-56
2021/08/19 09:32:14;;;;;;;1.40;1.30;;;19.10;78.00;;;;;;4995825;28;20952;-57
2021/08/19 09:34:42;;;;;;;1.27;1.17;;;19.10;74.20;;;;;;5004612;28;21139;-57
2021/08/19 09:37:12;;;;;;;1.10;1.03;;;19.10;76.80;;;;;;5009171;28;20399;-56
2021/08/19 09:39:41;;;;;;;1.73;1.23;;;19.00;73.50;;;;;;5008091;28;20388;-56
2021/08/19 09:42:08;;;;;;;1.50;1.17;;;18.90;75.30;;;;;;4995574;28;20418;-57
2021/08/19 09:44:39;;;;;;;1.10;1.00;;;18.90;79.50;;;;;;5008531;28;20821;-56
2021/08/19 09:47:06;;;;;;;1.90;1.57;;;18.90;80.80;;;;;;5008493;28;20434;-56
2021/08/19 09:49:37;;;;;;;2.77;1.30;;;18.90;78.20;;;;;;4989553;28;20914;-55
2021/08/19 09:52:08;;;;;;;1.60;1.50;;;19.00;76.40;;;;;;5013457;28;20835;-57
2021/08/19 09:54:38;;;;;;;2.60;1.70;;;19.00;73.70;;;;;;5011866;28;20556;-57
2021/08/19 09:57:05;;;;;;;1.83;1.50;;;19.00;73.10;;;;;;4999377;28;20605;-57
2021/08/19 09:59:36;;;;;;;1.30;1.20;;;19.10;71.00;;;;;;4998600;28;20494;-57
2021/08/19 10:02:04;;;;;;;2.20;2.00;;;19.30;73.10;;;;;;5007552;28;20446;-57
2021/08/19 10:04:30;;;;;;;2.00;1.63;;;19.50;77.50;;;;;;5006811;28;20474;-57
2021/08/19 10:06:56;;;;;;;1.87;1.50;;;19.80;74.20;;;;;;4996592;28;20479;-57
2021/08/19 10:09:23;;;;;;;2.73;2.10;;;19.80;67.60;;;;;;4988697;28;20240;-56
2021/08/19 10:11:51;;;;;;;2.90;1.27;;;19.80;67.10;;;;;;4991268;28;20415;-56
2021/08/19 10:14:19;;;;;;;3.97;1.40;;;19.80;68.50;;;;;;5008444;28;20634;-57
2021/08/19 10:16:47;;;;;;;1.60;1.50;;;19.80;69.80;;;;;;5005857;28;20454;-55
2021/08/19 10:19:33;;;;;;;3.43;1.60;;;19.60;65.10;;;;;;5007819;28;20435;-57
2021/08/19 10:22:26;;;;;;;1.70;1.37;;;19.50;68.00;;;;;;5007203;28;20440;-57
2021/08/19 10:24:54;;;;;;;1.67;1.40;;;19.50;70.90;;;;;;4996960;28;20451;-56
2021/08/19 10:27:20;;;;;;;1.77;1.40;;;19.40;71.20;;;;;;5006601;28;20844;-56
2021/08/19 10:29:50;;;;;;;1.20;1.10;;;19.30;70.70;;;;;;5007557;28;20924;-56
2021/08/19 10:32:33;;;;;;;2.10;1.50;;;19.30;71.40;;;;;;5003384;28;20438;-57
2021/08/19 10:35:07;;;;;;;2.03;1.40;;;19.30;73.60;;;;;;5007327;28;20431;-56
2021/08/19 10:37:45;;;;;;;1.23;1.13;;;19.30;74.90;;;;;;5005808;28;20472;-56
2021/08/19 10:40:27;;;;;;;1.30;1.20;;;19.50;76.90;;;;;;5006599;28;20450;-56
2021/08/19 10:42:58;;;;;;;1.80;1.30;;;19.60;78.40;;;;;;4991279;28;20506;-56
2021/08/19 10:45:27;;;;;;;3.97;1.70;;;19.70;73.20;;;;;;5000577;28;20803;-56
2021/08/19 10:48:12;;;;;;;1.60;1.50;;;19.70;70.20;;;;;;5003267;28;20514;-56
2021/08/19 10:50:40;;;;;;;1.67;1.37;;;19.70;71.30;;;;;;4997715;28;20466;-56
2021/08/19 10:53:15;;;;;;;3.60;1.70;;;19.70;71.80;;;;;;5013004;28;20836;-56
2021/08/19 10:55:55;;;;;;;1.53;1.43;;;19.70;71.80;;;;;;5006667;28;20554;-56
2021/08/19 10:58:27;;;;;;;1.30;1.20;;;19.60;71.80;;;;;;5004274;28;20924;-56
2021/08/19 11:01:14;;;;;;;1.40;1.30;;;19.60;70.20;;;;;;4988957;28;20779;-56
2021/08/19 11:03:44;;;;;;;3.23;1.67;;;19.60;71.80;;;;;;4997321;28;20491;-56
2021/08/19 11:06:14;;;;;;;2.20;1.77;;;19.60;71.40;;;;;;5004070;28;20435;-56
2021/08/19 11:08:42;;;;;;;1.87;1.30;;;19.70;70.30;;;;;;5006691;28;20943;-56
2021/08/19 11:11:09;;;;;;;1.67;1.30;;;19.70;68.80;;;;;;5008022;28;20499;-56
2021/08/19 11:13:36;;;;;;;1.73;1.43;;;19.70;67.80;;;;;;5005911;28;20403;-57
2021/08/19 11:16:12;;;;;;;3.30;1.60;;;19.70;65.70;;;;;;5005936;28;20437;-57
2021/08/19 11:18:40;;;;;;;2.70;1.57;;;19.70;66.10;;;;;;5009304;28;20427;-55
2021/08/19 11:21:08;;;;;;;3.23;1.80;;;19.70;65.40;;;;;;5007767;28;20412;-56
2021/08/19 11:23:39;;;;;;;2.53;1.70;;;19.70;65.00;;;;;;5007153;28;20502;-56
2021/08/19 11:26:19;;;;;;;2.47;2.00;;;19.70;66.70;;;;;;4988172;28;20939;-56
2021/08/19 11:28:48;;;;;;;2.33;1.60;;;19.80;66.70;;;;;;4990163;28;20823;-56
2021/08/19 11:31:13;;;;;;;2.03;1.47;;;19.70;63.40;;;;;;5001395;28;20424;-55
2021/08/19 11:33:40;;;;;;;2.40;1.63;;;19.80;63.50;;;;;;4996069;28;20799;-56
2021/08/19 11:36:07;;;;;;;2.20;2.00;;;19.80;65.10;;;;;;5007576;28;20165;-56
2021/08/19 11:38:34;;;;;;;2.07;1.70;;;19.90;65.30;;;;;;5007264;28;20494;-57
2021/08/19 11:41:14;;;;;;;1.70;1.50;;;20.00;64.40;;;;;;5002867;28;20450;-58
2021/08/19 11:43:42;;;;;;;4.23;1.60;;;20.20;66.50;;;;;;5007321;28;20505;-57
2021/08/19 11:46:20;;;;;;;3.30;1.93;;;20.40;65.40;;;;;;5012373;28;20775;-56
2021/08/19 11:48:47;;;;;;;1.50;1.40;;;20.40;62.00;;;;;;5010892;28;20728;-57
2021/08/19 11:51:38;;;;;;;2.10;1.77;;;20.40;61.10;;;;;;4996301;28;20451;-57
2021/08/19 11:54:10;;;;;;;2.10;1.90;;;20.40;60.80;;;;;;5009981;28;20506;-57
2021/08/19 11:56:38;;;;;;;2.13;1.60;;;20.30;59.20;;;;;;5048947;22;20497;-60
2021/08/19 11:59:07;;;;;;;2.73;1.97;;;20.30;59.90;;;;;;5029586;28;20434;-56
2021/08/19 12:01:37;;;;;;;3.70;1.60;;;20.30;60.70;;;;;;5032192;28;20391;-56
2021/08/19 12:04:04;;;;;;;2.30;1.73;;;20.30;61.90;;;;;;5032866;28;20405;-59
2021/08/19 12:06:32;;;;;;;1.60;1.47;;;20.30;61.70;;;;;;5047536;28;20965;-60
2021/08/19 12:09:05;;;;;;;2.50;1.50;;;20.20;61.60;;;;;;5031194;28;20536;-60
2021/08/19 12:11:37;;;;;;;1.77;1.67;;;20.30;61.80;;;;;;5032064;28;20441;-57
2021/08/19 12:14:05;;;;;;;2.27;2.07;;;20.30;62.90;;;;;;5032462;28;20391;-59
2021/08/19 12:16:31;;;;;;;3.20;1.60;;;20.30;61.90;;;;;;5044201;28;20556;-60
2021/08/19 12:19:12;;;;;;;2.00;1.83;;;20.40;61.60;;;;;;5051286;28;20974;-60
2021/08/19 12:21:43;;;;;;;5.33;1.80;;;20.40;61.40;;;;;;5033572;28;20164;-59
2021/08/19 12:24:13;;;;;;;2.63;1.70;;;20.40;61.50;;;;;;5046437;28;20429;-59
2021/08/19 12:26:39;;;;;;;1.73;1.53;;;20.50;61.40;;;;;;5050505;28;20440;-60
2021/08/19 12:29:04;;;;;;;1.30;1.20;;;20.50;61.30;;;;;;5050234;28;20536;-60
2021/08/19 12:31:47;;;;;;;2.23;1.80;;;20.50;61.80;;;;;;5026543;28;20537;-60
2021/08/19 12:34:13;;;;;;;2.13;1.73;;;20.60;62.50;;;;;;5051604;28;20178;-57
2021/08/19 12:36:39;;;;;;;1.83;1.70;;;20.60;64.20;;;;;;5033613;28;20422;-60
2021/08/19 12:39:21;;;;;;;2.27;1.50;;;20.70;63.60;;;;;;5045592;28;20175;-60
2021/08/19 12:41:48;;;;;;;2.10;1.70;;;20.80;63.50;;;;;;5043348;28;20172;-58
2021/08/19 12:44:21;;;;;;;4.27;2.20;;;20.80;62.50;;;;;;5050452;28;20418;-59
2021/08/19 12:46:49;;;;;;;1.87;1.73;;;20.90;61.70;;;;;;5050214;28;20444;-57
2021/08/19 12:49:37;;;;;;;2.30;2.00;;;20.90;63.10;;;;;;5032761;28;20445;-57
2021/08/19 12:52:30;;;;;;;2.40;1.90;;;20.90;61.70;;;;;;5051078;28;20386;-60
2021/08/19 12:55:04;;;;;;;2.27;1.70;;;21.00;62.70;;;;;;5046141;28;20429;-59
2021/08/19 12:57:47;;;;;;;4.73;2.23;;;21.00;61.90;;;;;;5045456;28;20440;-60
2021/08/19 13:00:15;;;;;;;2.30;1.67;;;21.00;62.60;;;;;;5038509;28;20434;-59